SBSN/STM METAR and TAF weather

Enter ICAO airport designator
Station Type Date Time Source
SBSN METAR 2021/08/02 03:00 UTC NOAA

SBSN 020300Z 15001KT CAVOK 23/22 Q1017


Station Type Date Time Source
SBSN Decoded METAR 2021/08/02 03:00 UTC NOAA

Santarem-Aeroporto, Brazil (SBSN) 02-26S 054-43W 72M
Aug 01, 2021 - 11:00 PM EDT / 2021.08.02 0300 UTC
Wind: from the SSE (150 degrees) at 1 MPH (1 KT):0
Visibility: greater than 7 mile(s):0
Temperature: 73 F (23 C)
Dew Point: 71 F (22 C)
Relative Humidity: 94%
Pressure (altimeter): 30.03 in. Hg (1017 hPa)
ob: SBSN 020300Z 15001KT CAVOK 23/22 Q1017
cycle: 3

Station Type Date Time Source
SBSN TAF 2021/08/02 06:33 UTC NOAA

TAF SBSN 020230Z 0206/0306 18005KT 9999 SCT035 TN23/0208Z TX30/0218Z PROB40 0206/0209 5000 SHRA BKN016 FEW023TCU
BECMG 0213/0215 06010KT SCT025
BECMG 0216/0218 09015KT 9999 FEW025
BECMG 0221/0223 14005KT
RMK PGU

Example: see airport list